Strona główna
METAR-TAF:

METAR-TAF

Lotnisko :

Port lotniczy Bahrajn

Bahrajn, Bahrajn

Szerokość geograficzna: 26-16N, Długość geograficzna: 050-39E, wysokość: 2 m

Aktualna obserwacja pogody

Raport powstał 11 minut temu, godzina 04:00 UTC
Wiatr 3 kt od wschód
Temperatura 31°C
Wilgotność 59%
Ciśnienie 1015 hPa
Widzialność 10 km lub więcej
Mało chmury na wysokości 3000 ft

METAR: OBBI 200400Z 08003KT 9999 FEW030 31/22 Q1015 NOSIG

czas: 07:11 (04:11 UTC)

Prognoza

Raport powstał 5 godziny i 11 minut temu, godzina 23:00 UTC
Prognoza ważna od 20 godzina 00 UTC do 21 godzina 06 UTC
Wiatr 7 kt od północny wschód
Widzialność: 8000 m
Prawdopodobieństwo 30% :
Przejściowo
od 20 godzina 08 UTC do 20 godzina 15 UTC
Wiatr 17 kt od północno-północny zachód w porywach dochodzący do 27 kt
Widzialność: 5000 m
Mało chmury na wysokości 4000 ft, Cumulonimbus.
Rozproszone chmury na wysokości 10000 ft
burza, słaby deszcz

TAF: OBBI 192300Z 2000/2106 05007KT 8000 NSC PROB30 TEMPO 2008/2015 34017G27KT 5000 -TSRA FEW040CB SCT100

Obserwacja i prognoza pogody dla ponad 4000 lotnisk (raport METAR i TAF).

Dostępne stacje oznaczono żółtymi i czerwonymi punktami na mapie.

Najedź kursorem aby zobaczyć nazwę stacji.

Kliknij aby zobaczyć obserwacje i prognozy pogody.

Aby zmienić mapę: kliknij na zielony przycisk z czarnym krzyżykiem, aby powiększyć; na zielony przycisk z myślnikiem, aby pomniejszyć; na zielone strzałki, aby przejść do map sąsiednich.


METAR-TAF: